Time;durP1;ratioP1;P1;durP2;ratioP2;P2;SDS_P1;SDS_P2;PMS_P1;PMS_P2;Temp;Humidity;BMP_temperature;BMP_pressure;BME280_temperature;BME280_humidity;BME280_pressure;Samples;Min_cycle;Max_cycle;Signal;HPM_P1;HPM_P2
2022/09/05 00:01:42;;;;;;;;;;;;;;;25.53;58.13;98960.50;5094400;28;19927;-49
2022/09/05 00:04:10;;;;;;;;;;;;;;;25.59;58.13;98951.25;5094328;28;19937;-48
2022/09/05 00:06:38;;;;;;;;;;;;;;;25.65;57.96;98960.84;5092911;28;19916;-48
2022/09/05 00:09:27;;;;;;;;;;;;;;;25.64;57.84;98953.88;5092892;28;20341;-47
2022/09/05 00:11:59;;;;;;;;;;;;;;;25.56;57.87;98945.69;5088353;28;19916;-48
2022/09/05 00:14:49;;;;;;;;;;;;;;;25.62;57.88;98949.91;5092881;28;19919;-48
2022/09/05 00:17:28;;;;;;;;;;;;;;;25.66;58.09;98956.28;5093978;28;19937;-48
2022/09/05 00:19:59;;;;;;;;;;;;;;;25.76;57.82;98955.34;5092761;28;20007;-49
2022/09/05 00:22:34;;;;;;;;;;;;;;;25.88;57.74;98948.38;5093888;28;20288;-49
2022/09/05 00:25:18;;;;;;;;;;;;;;;25.91;57.32;98952.41;5093910;28;19916;-49
2022/09/05 00:27:46;;;;;;;;;;;;;;;25.91;56.93;98955.09;5093796;28;20034;-50
2022/09/05 00:30:14;;;;;;;;;;;;;;;25.85;57.15;98948.16;5093711;28;19919;-49
2022/09/05 00:32:54;;;;;;;;;;;;;;;25.62;57.23;98941.84;5093497;28;20420;-49
2022/09/05 00:35:30;;;;;;;;;;;;;;;25.48;57.95;98939.09;5092339;28;19912;-49
2022/09/05 00:38:10;;;;;;;;;;;;;;;25.44;58.08;98943.47;5092338;28;19920;-49
2022/09/05 00:40:38;;;;;;;;;;;;;;;25.51;58.30;98943.88;5093667;28;19916;-49
2022/09/05 00:43:10;;;;;;;;;;;;;;;25.59;58.02;98947.78;5092225;28;19911;-48
2022/09/05 00:45:44;;;;;;;;;;;;;;;25.60;57.56;98944.03;5092206;28;19955;-48
2022/09/05 00:48:28;;;;;;;;;;;;;;;25.53;57.76;98963.19;5093502;28;19911;-48
2022/09/05 00:51:02;;;;;;;;;;;;;;;25.54;57.93;98959.44;5093620;28;19912;-48
2022/09/05 00:53:48;;;;;;;;;;;;;;;25.56;57.79;98962.63;5093310;28;19934;-48
2022/09/05 00:56:17;;;;;;;;;;;;;;;25.52;57.81;98969.66;5092934;28;20061;-48
2022/09/05 00:59:02;;;;;;;;;;;;;;;25.42;58.05;98964.44;5093154;28;19919;-48
2022/09/05 01:01:46;;;;;;;;;;;;;;;25.23;58.41;98964.44;5093179;28;19912;-47
2022/09/05 01:04:21;;;;;;;;;;;;;;;25.14;58.74;98976.91;5091803;28;19912;-48
2022/09/05 01:06:46;;;;;;;;;;;;;;;25.10;59.08;98974.00;5091827;28;19915;-47
2022/09/05 01:09:31;;;;;;;;;;;;;;;25.09;59.09;98975.06;5092959;28;19984;-47
2022/09/05 01:12:08;;;;;;;;;;;;;;;25.07;59.00;98983.44;5093081;28;19919;-48
2022/09/05 01:14:53;;;;;;;;;;;;;;;25.04;59.39;98984.00;5093270;28;20437;-48
2022/09/05 01:17:34;;;;;;;;;;;;;;;25.06;59.31;98986.41;5074675;28;19935;-48
2022/09/05 01:20:03;;;;;;;;;;;;;;;25.24;59.41;98974.91;5091753;28;19912;-47
2022/09/05 01:23:01;;;;;;;;;;;;;;;25.39;58.95;98973.88;5092806;28;19916;-48
2022/09/05 01:25:46;;;;;;;;;;;;;;;25.42;58.62;98967.13;5069179;28;19923;-47
2022/09/05 01:28:17;;;;;;;;;;;;;;;25.46;58.73;98976.22;5092728;28;20015;-48
2022/09/05 01:30:47;;;;;;;;;;;;;;;25.45;59.04;98977.28;5092710;28;19912;-48
2022/09/05 01:33:31;;;;;;;;;;;;;;;25.51;59.09;98973.44;5091115;28;19916;-47
2022/09/05 01:36:00;;;;;;;;;;;;;;;25.59;59.03;98967.41;5091366;28;19919;-48
2022/09/05 01:38:28;;;;;;;;;;;;;;;25.63;58.85;98973.00;5092886;28;19912;-48
2022/09/05 01:41:04;;;;;;;;;;;;;;;25.79;58.58;98970.84;5091371;28;19912;-48
2022/09/05 01:43:48;;;;;;;;;;;;;;;25.93;58.25;98968.25;5092628;28;20457;-48
2022/09/05 01:46:29;;;;;;;;;;;;;;;26.01;57.67;98976.44;5091215;28;20297;-48
2022/09/05 01:49:06;;;;;;;;;;;;;;;25.98;57.59;98981.59;5091204;28;19916;-48
2022/09/05 01:51:37;;;;;;;;;;;;;;;25.91;57.63;98974.69;5092727;28;19919;-48
2022/09/05 01:54:21;;;;;;;;;;;;;;;25.79;57.85;98976.25;5091180;28;19912;-47
2022/09/05 01:56:59;;;;;;;;;;;;;;;25.61;58.02;98975.97;5091084;28;19916;-48
2022/09/05 01:59:24;;;;;;;;;;;;;;;25.53;58.94;98976.63;5091079;28;19977;-48
2022/09/05 02:01:58;;;;;;;;;;;;;;;25.63;58.88;98973.78;5092302;28;19916;-49
2022/09/05 02:04:42;;;;;;;;;;;;;;;25.75;58.23;98967.16;5092371;28;20377;-47
2022/09/05 02:07:20;;;;;;;;;;;;;;;25.71;58.40;98977.69;5092277;28;19934;-48
2022/09/05 02:10:09;;;;;;;;;;;;;;;25.70;58.43;98974.22;5090947;28;19916;-48
2022/09/05 02:12:51;;;;;;;;;;;;;;;25.62;58.54;98979.47;5094314;28;19922;-48
2022/09/05 02:15:26;;;;;;;;;;;;;;;25.47;58.59;98981.31;5095025;28;19981;-48
2022/09/05 02:17:54;;;;;;;;;;;;;;;25.45;58.94;98980.75;5096250;28;19965;-48
2022/09/05 02:20:22;;;;;;;;;;;;;;;25.47;59.27;98969.72;5096270;28;19919;-48
2022/09/05 02:22:59;;;;;;;;;;;;;;;25.63;59.01;98970.31;5096253;28;20274;-48
2022/09/05 02:25:28;;;;;;;;;;;;;;;25.78;58.63;98969.28;5096208;28;19916;-48
2022/09/05 02:28:04;;;;;;;;;;;;;;;25.75;58.32;98965.25;5096396;28;19954;-48
2022/09/05 02:30:34;;;;;;;;;;;;;;;25.85;58.53;98970.47;5094833;28;20301;-49
2022/09/05 02:33:18;;;;;;;;;;;;;;;25.75;58.07;98978.72;5095838;28;19923;-50
2022/09/05 02:35:44;;;;;;;;;;;;;;;25.46;58.85;98965.47;5095984;28;20292;-49
2022/09/05 02:38:17;;;;;;;;;;;;;;;25.24;59.54;98974.91;5095841;28;19911;-49
2022/09/05 02:41:04;;;;;;;;;;;;;;;25.17;60.10;98971.72;5094583;28;19919;-50
2022/09/05 02:43:36;;;;;;;;;;;;;;;25.22;60.14;98966.31;5095923;28;19919;-49
2022/09/05 02:46:21;;;;;;;;;;;;;;;25.21;59.96;98964.75;5094494;28;19912;-50
2022/09/05 02:49:01;;;;;;;;;;;;;;;25.31;60.45;98974.53;5074028;28;19934;-48
2022/09/05 02:51:33;;;;;;;;;;;;;;;25.53;59.71;98976.63;5094402;28;19920;-48
2022/09/05 02:54:11;;;;;;;;;;;;;;;25.51;59.43;98979.63;5095638;28;19934;-48
2022/09/05 02:56:45;;;;;;;;;;;;;;;25.47;59.73;98980.47;5094284;28;19920;-49
2022/09/05 02:59:30;;;;;;;;;;;;;;;25.40;59.83;98974.69;5095542;28;19912;-50
2022/09/05 03:02:11;;;;;;;;;;;;;;;25.40;60.02;98974.69;5095410;28;19919;-49
2022/09/05 03:04:41;;;;;;;;;;;;;;;25.35;60.13;98978.22;5094172;28;20010;-48
2022/09/05 03:07:16;;;;;;;;;;;;;;;25.26;60.78;98975.41;5094386;28;19935;-49
2022/09/05 03:09:50;;;;;;;;;;;;;;;25.23;60.76;98985.94;5095364;28;19912;-49
2022/09/05 03:12:48;;;;;;;;;;;;;;;25.17;61.10;98979.78;5095292;28;19916;-50
2022/09/05 03:15:32;;;;;;;;;;;;;;;25.11;61.22;98978.25;5095280;28;20006;-49
2022/09/05 03:18:16;;;;;;;;;;;;;;;25.12;61.28;98977.19;5093838;28;19912;-49
2022/09/05 03:20:54;;;;;;;;;;;;;;;25.07;61.08;98975.38;5095152;28;19912;-48
2022/09/05 03:23:38;;;;;;;;;;;;;;;25.04;61.87;98981.31;5094991;28;20409;-49
2022/09/05 03:26:20;;;;;;;;;;;;;;;25.23;61.54;98980.56;5093720;28;20003;-49
2022/09/05 03:29:00;;;;;;;;;;;;;;;25.22;61.35;98974.38;5095046;28;19982;-50
2022/09/05 03:31:29;;;;;;;;;;;;;;;25.05;60.95;98979.41;5094972;28;20644;-49
2022/09/05 03:34:07;;;;;;;;;;;;;;;24.95;61.73;98979.53;5094696;28;20007;-50
2022/09/05 03:36:44;;;;;;;;;;;;;;;24.92;61.95;98979.03;5094939;28;19956;-49
2022/09/05 03:39:18;;;;;;;;;;;;;;;24.99;61.96;98981.38;5093404;28;19912;-49
2022/09/05 03:41:54;;;;;;;;;;;;;;;24.91;61.83;98985.50;5093448;28;19965;-49
2022/09/05 03:44:38;;;;;;;;;;;;;;;24.71;62.52;98985.75;5094731;28;19919;-49
2022/09/05 03:47:22;;;;;;;;;;;;;;;24.69;62.89;98990.63;5094646;28;19912;-49
2022/09/05 03:50:00;;;;;;;;;;;;;;;24.96;62.67;98981.94;5093331;28;20316;-49
2022/09/05 03:52:55;;;;;;;;;;;;;;;25.16;61.59;98980.88;5093291;28;19972;-49
2022/09/05 03:55:29;;;;;;;;;;;;;;;25.38;61.12;98987.63;5084765;28;20002;-48
2022/09/05 03:58:13;;;;;;;;;;;;;;;25.51;60.81;98981.50;5093108;28;19919;-50
2022/09/05 04:00:41;;;;;;;;;;;;;;;25.66;59.94;98988.53;5094382;28;19946;-49
2022/09/05 04:03:14;;;;;;;;;;;;;;;25.60;60.20;98985.13;5094305;28;20003;-49
2022/09/05 04:05:43;;;;;;;;;;;;;;;25.62;59.89;98988.31;5094548;28;19920;-49
2022/09/05 04:08:09;;;;;;;;;;;;;;;25.52;60.30;98985.78;5094244;28;20065;-49
2022/09/05 04:10:55;;;;;;;;;;;;;;;25.55;60.25;98981.72;5092876;28;20404;-48
2022/09/05 04:13:27;;;;;;;;;;;;;;;25.65;60.26;98985.03;5071890;28;19937;-49
2022/09/05 04:16:03;;;;;;;;;;;;;;;25.82;59.78;98986.41;5094062;28;19911;-49
2022/09/05 04:18:49;;;;;;;;;;;;;;;25.85;59.38;98980.44;5092672;28;19919;-49
2022/09/05 04:21:18;;;;;;;;;;;;;;;25.70;58.95;98982.28;5072337;28;20045;-49
2022/09/05 04:23:49;;;;;;;;;;;;;;;25.45;60.18;98980.75;5093939;28;19912;-50
2022/09/05 04:26:14;;;;;;;;;;;;;;;25.38;60.48;98984.94;5093842;28;19912;-49
2022/09/05 04:28:46;;;;;;;;;;;;;;;25.12;60.67;98982.56;5092523;28;19920;-49
2022/09/05 04:31:28;;;;;;;;;;;;;;;24.80;61.58;98986.72;5092511;28;19919;-49
2022/09/05 04:34:12;;;;;;;;;;;;;;;24.60;62.87;98986.94;5093443;28;19985;-50
2022/09/05 04:36:39;;;;;;;;;;;;;;;24.45;63.71;98986.00;5092239;28;20011;-49
2022/09/05 04:39:04;;;;;;;;;;;;;;;24.43;63.70;98995.44;5092229;28;19911;-49
2022/09/05 04:41:32;;;;;;;;;;;;;;;24.42;63.69;98993.81;5093604;28;20354;-49
2022/09/05 04:44:00;;;;;;;;;;;;;;;24.43;64.06;99006.16;5092146;28;20011;-49
2022/09/05 04:46:25;;;;;;;;;;;;;;;24.48;64.31;98995.34;5093484;28;19912;-49
2022/09/05 04:49:09;;;;;;;;;;;;;;;24.72;63.76;99000.75;5093455;28;19912;-50
2022/09/05 04:51:47;;;;;;;;;;;;;;;24.84;63.29;99003.84;5093394;28;20010;-49
2022/09/05 04:54:12;;;;;;;;;;;;;;;24.97;62.54;99009.59;5093358;28;19935;-49
2022/09/05 04:56:41;;;;;;;;;;;;;;;25.15;62.46;99010.72;5093327;28;19912;-49
2022/09/05 04:59:15;;;;;;;;;;;;;;;25.40;61.74;99012.31;5091898;28;19919;-50
2022/09/05 05:01:43;;;;;;;;;;;;;;;25.59;60.59;99009.59;5093199;28;20073;-50
2022/09/05 05:04:14;;;;;;;;;;;;;;;25.50;60.67;99014.84;5091799;28;19912;-49
2022/09/05 05:06:45;;;;;;;;;;;;;;;25.55;60.79;99017.44;5093086;28;19927;-49
2022/09/05 05:09:16;;;;;;;;;;;;;;;25.58;60.36;99022.25;5093168;28;19918;-50
2022/09/05 05:11:52;;;;;;;;;;;;;;;25.36;60.09;99022.03;5091768;28;19912;-50
2022/09/05 05:14:40;;;;;;;;;;;;;;;25.13;61.23;99024.44;5092961;28;19916;-49
2022/09/05 05:17:12;;;;;;;;;;;;;;;25.13;61.45;99029.81;5093013;28;20011;-49
2022/09/05 05:19:44;;;;;;;;;;;;;;;25.10;61.21;99038.44;5092933;28;19912;-49
2022/09/05 05:22:14;;;;;;;;;;;;;;;25.07;61.58;99036.31;5092821;28;19916;-48
2022/09/05 05:24:45;;;;;;;;;;;;;;;25.16;61.20;99039.19;5092864;28;19916;-50
2022/09/05 05:27:18;;;;;;;;;;;;;;;25.13;60.91;99045.91;5092721;28;19912;-47
2022/09/05 05:29:50;;;;;;;;;;;;;;;24.94;61.76;99042.41;5092827;28;20011;-48
2022/09/05 05:32:18;;;;;;;;;;;;;;;24.72;61.71;99051.75;5092717;28;19981;-47
2022/09/05 05:34:46;;;;;;;;;;;;;;;24.60;62.28;99056.72;5092533;28;19920;-49
2022/09/05 05:37:31;;;;;;;;;;;;;;;24.43;62.48;99059.81;5092468;28;20028;-48
2022/09/05 05:40:08;;;;;;;;;;;;;;;24.62;62.61;99051.88;5092603;28;19981;-48
2022/09/05 05:42:35;;;;;;;;;;;;;;;25.04;61.55;99061.09;5092535;28;19916;-48
2022/09/05 05:45:01;;;;;;;;;;;;;;;25.69;60.11;99057.84;5091286;28;19998;-48
2022/09/05 05:47:41;;;;;;;;;;;;;;;26.39;58.28;99058.94;5091584;28;20354;-48
2022/09/05 05:50:27;;;;;;;;;;;;;;;27.12;55.94;99060.00;5092455;28;19923;-48
2022/09/05 05:53:11;;;;;;;;;;;;;;;27.61;53.99;99057.69;5091115;28;19912;-47
2022/09/05 05:55:46;;;;;;;;;;;;;;;27.91;52.86;99067.00;5091090;28;19916;-47
2022/09/05 05:58:30;;;;;;;;;;;;;;;28.31;52.28;99061.69;5092303;28;20364;-48
2022/09/05 06:00:56;;;;;;;;;;;;;;;28.79;51.23;99055.59;5092327;28;19919;-48
2022/09/05 06:03:40;;;;;;;;;;;;;;;29.28;50.08;99055.63;5092305;28;19912;-48
2022/09/05 06:06:17;;;;;;;;;;;;;;;29.51;49.19;99052.78;5092283;28;20002;-48
2022/09/05 06:09:02;;;;;;;;;;;;;;;29.66;48.00;99057.72;5090987;28;19919;-47
2022/09/05 06:11:46;;;;;;;;;;;;;;;29.63;48.27;99059.16;5092198;28;19919;-48
2022/09/05 06:14:32;;;;;;;;;;;;;;;29.68;48.38;99053.59;5092285;28;20336;-48
2022/09/05 06:17:16;;;;;;;;;;;;;;;29.89;47.81;99061.09;5092375;28;19912;-48
2022/09/05 06:19:48;;;;;;;;;;;;;;;29.85;47.70;99057.44;5092217;28;20342;-48
2022/09/05 06:22:37;;;;;;;;;;;;;;;30.21;47.22;99059.78;5090848;28;19916;-48
2022/09/05 06:25:20;;;;;;;;;;;;;;;30.71;45.58;99046.72;5090821;28;19912;-47
2022/09/05 06:27:52;;;;;;;;;;;;;;;30.96;45.21;99053.97;5090889;28;19985;-48
2022/09/05 06:30:19;;;;;;;;;;;;;;;31.46;43.89;99052.41;5092139;28;19912;-48
2022/09/05 06:32:46;;;;;;;;;;;;;;;31.99;42.31;99055.50;5091831;28;19999;-47
2022/09/05 06:35:12;;;;;;;;;;;;;;;32.12;41.19;99054.44;5092048;28;19912;-48
2022/09/05 06:37:44;;;;;;;;;;;;;;;31.99;41.70;99053.56;5091947;28;19923;-47
2022/09/05 06:40:17;;;;;;;;;;;;;;;32.17;41.40;99059.66;5091930;28;19934;-48
2022/09/05 06:42:51;;;;;;;;;;;;;;;32.32;40.88;99054.72;5092088;28;19955;-47
2022/09/05 06:45:23;;;;;;;;;;;;;;;32.38;40.88;99054.16;5091895;28;19920;-48
2022/09/05 06:47:51;;;;;;;;;;;;;;;32.47;40.57;99058.69;5091932;28;19919;-49
2022/09/05 06:50:19;;;;;;;;;;;;;;;32.60;40.02;99063.84;5090559;28;19916;-48
2022/09/05 06:53:08;;;;;;;;;;;;;;;32.65;39.68;99062.81;5091867;28;19955;-48
2022/09/05 06:55:42;;;;;;;;;;;;;;;32.32;39.77;99071.03;5091840;28;19916;-48
2022/09/05 06:58:26;;;;;;;;;;;;;;;32.38;40.29;99073.19;5093019;28;19919;-49
2022/09/05 07:00:54;;;;;;;;;;;;;;;32.82;38.96;99067.25;5095566;28;19923;-47
2022/09/05 07:03:27;;;;;;;;;;;;;;;33.23;38.28;99068.97;5095545;28;19912;-47
2022/09/05 07:05:59;;;;;;;;;;;;;;;33.74;37.37;99070.44;5095489;28;19912;-47
2022/09/05 07:08:29;;;;;;;;;;;;;;;34.11;37.10;99071.09;5095463;28;19932;-48
2022/09/05 07:11:03;;;;;;;;;;;;;;;34.47;36.31;99068.53;5094027;28;19919;-48
2022/09/05 07:13:28;;;;;;;;;;;;;;;34.24;35.78;99079.22;5095389;28;20026;-48
2022/09/05 07:15:59;;;;;;;;;;;;;;;34.02;36.28;99079.41;5094059;28;19951;-50
2022/09/05 07:18:45;;;;;;;;;;;;;;;34.05;36.30;99072.50;5095303;28;19916;-49
2022/09/05 07:21:18;;;;;;;;;;;;;;;34.33;36.13;99074.41;5095534;28;19978;-48
2022/09/05 07:23:50;;;;;;;;;;;;;;;34.76;34.98;99078.25;5095203;28;19916;-48
2022/09/05 07:26:18;;;;;;;;;;;;;;;35.00;34.90;99060.88;5095072;28;19911;-48
2022/09/05 07:28:46;;;;;;;;;;;;;;;35.26;34.09;99073.19;5093672;28;19923;-48
2022/09/05 07:31:17;;;;;;;;;;;;;;;35.58;33.68;99071.94;5095187;28;19918;-49
2022/09/05 07:33:44;;;;;;;;;;;;;;;35.55;33.67;99080.81;5094684;28;19923;-48
2022/09/05 07:36:13;;;;;;;;;;;;;;;35.65;33.35;99081.41;5094849;28;19912;-49
2022/09/05 07:38:39;;;;;;;;;;;;;;;35.81;33.04;99073.97;5094795;28;20056;-50
2022/09/05 07:41:04;;;;;;;;;;;;;;;36.17;32.88;99077.41;5093468;28;20436;-51
2022/09/05 07:43:38;;;;;;;;;;;;;;;36.52;31.93;99074.53;5094779;28;19912;-48
2022/09/05 07:46:03;;;;;;;;;;;;;;;36.69;31.40;99073.25;5094980;28;19943;-48
2022/09/05 07:48:32;;;;;;;;;;;;;;;37.05;31.20;99081.22;5094689;28;19912;-48
2022/09/05 07:51:00;;;;;;;;;;;;;;;37.01;30.60;99075.69;5094572;28;20282;-48
2022/09/05 07:53:26;;;;;;;;;;;;;;;36.94;30.84;99083.78;5094571;28;19912;-50
2022/09/05 07:55:55;;;;;;;;;;;;;;;37.14;30.20;99079.03;5094523;28;19912;-49
2022/09/05 07:58:22;;;;;;;;;;;;;;;37.34;30.64;99071.47;5094434;28;19916;-50
2022/09/05 08:00:53;;;;;;;;;;;;;;;37.72;29.46;99080.59;5094399;28;19912;-48
2022/09/05 08:03:23;;;;;;;;;;;;;;;37.94;28.92;99079.66;5093053;28;20421;-48
2022/09/05 08:05:52;;;;;;;;;;;;;;;38.07;29.15;99074.75;5094295;28;19912;-50
2022/09/05 08:08:24;;;;;;;;;;;;;;;38.24;28.57;99067.88;5094231;28;19912;-48
2022/09/05 08:10:51;;;;;;;;;;;;;;;38.39;28.24;99070.75;5093295;28;19955;-49
2022/09/05 08:13:42;;;;;;;;;;;;;;;38.21;28.70;99065.09;5094193;28;19915;-50
2022/09/05 08:16:10;;;;;;;;;;;;;;;38.33;28.46;99067.56;5092879;28;19912;-50
2022/09/05 08:18:57;;;;;;;;;;;;;;;38.68;27.74;99064.34;5093948;28;20007;-49
2022/09/05 08:21:23;;;;;;;;;;;;;;;39.11;27.04;99063.88;5093999;28;19965;-49
2022/09/05 08:24:08;;;;;;;;;;;;;;;39.28;26.54;99065.94;5094198;28;20321;-48
2022/09/05 08:26:39;;;;;;;;;;;;;;;39.01;26.58;99068.13;5093845;28;19912;-49
2022/09/05 08:29:24;;;;;;;;;;;;;;;39.03;26.60;99073.25;5092620;28;19912;-49
2022/09/05 08:32:13;;;;;;;;;;;;;;;38.99;26.30;99064.19;5093717;28;19912;-49
2022/09/05 08:34:42;;;;;;;;;;;;;;;39.08;26.49;99070.94;5087829;28;20382;-50
2022/09/05 08:37:12;;;;;;;;;;;;;;;39.25;26.09;99063.19;5093641;28;19912;-49
2022/09/05 08:39:39;;;;;;;;;;;;;;;39.32;25.98;99069.50;5093646;28;19919;-50
2022/09/05 08:42:07;;;;;;;;;;;;;;;39.13;25.50;99067.03;5093591;28;19939;-50
2022/09/05 08:44:59;;;;;;;;;;;;;;;38.94;26.02;99062.59;5092245;28;20002;-49
2022/09/05 08:47:43;;;;;;;;;;;;;;;39.14;25.96;99052.94;5076366;28;19912;-48
2022/09/05 08:50:24;;;;;;;;;;;;;;;39.47;25.53;99062.13;5093460;28;19912;-49
2022/09/05 08:53:08;;;;;;;;;;;;;;;39.41;25.75;99049.13;5093419;28;19982;-50
2022/09/05 08:55:39;;;;;;;;;;;;;;;39.41;25.41;99043.63;5093398;28;19912;-51
2022/09/05 08:58:25;;;;;;;;;;;;;;;39.71;26.11;99052.41;5093338;28;19916;-51
2022/09/05 09:01:11;;;;;;;;;;;;;;;39.97;25.05;99050.53;5093299;28;20283;-50
2022/09/05 09:03:55;;;;;;;;;;;;;;;39.79;25.15;99033.19;5085361;28;19920;-52
2022/09/05 09:06:39;;;;;;;;;;;;;;;39.11;25.37;99042.69;5091895;28;19912;-52
2022/09/05 09:09:04;;;;;;;;;;;;;;;37.95;26.40;99042.91;5093158;28;19912;-52
2022/09/05 09:11:33;;;;;;;;;;;;;;;37.48;27.81;99038.81;5093131;28;19912;-52
2022/09/05 09:14:17;;;;;;;;;;;;;;;37.84;27.27;99039.25;5091691;28;20278;-49
2022/09/05 09:17:06;;;;;;;;;;;;;;;38.47;26.40;99028.50;5091646;28;19915;-49
2022/09/05 09:19:31;;;;;;;;;;;;;;;39.20;25.43;99028.66;5072332;28;19912;-49
2022/09/05 09:21:56;;;;;;;;;;;;;;;39.57;24.41;99027.63;5092672;28;20066;-48
2022/09/05 09:24:25;;;;;;;;;;;;;;;39.53;24.14;99024.88;5093249;28;19965;-49
2022/09/05 09:26:56;;;;;;;;;;;;;;;39.53;23.73;99022.13;5092710;28;19924;-49
2022/09/05 09:29:22;;;;;;;;;;;;;;;39.78;24.13;99026.91;5091516;28;19912;-48
2022/09/05 09:32:12;;;;;;;;;;;;;;;40.44;23.80;99021.13;5092687;28;19958;-52
2022/09/05 09:34:44;;;;;;;;;;;;;;;41.35;22.38;99019.78;5087228;28;19920;-52
2022/09/05 09:37:49;;;;;;;;;;;;;;;41.44;21.85;99019.38;5091324;28;19912;-51
2022/09/05 09:40:17;;;;;;;;;;;;;;;40.93;21.84;99019.53;5050111;28;20373;-51
2022/09/05 09:42:52;;;;;;;;;;;;;;;41.17;21.82;99008.03;5049989;28;19971;-51
2022/09/05 09:45:21;;;;;;;;;;;;;;;41.13;21.40;99000.59;5050091;28;20302;-51
2022/09/05 09:48:03;;;;;;;;;;;;;;;40.91;21.83;99002.63;5050001;28;19916;-52
2022/09/05 09:50:47;;;;;;;;;;;;;;;41.18;22.09;98998.63;5050031;28;19916;-51
2022/09/05 09:53:21;;;;;;;;;;;;;;;41.51;21.37;98992.56;5050018;28;19912;-51
2022/09/05 09:56:08;;;;;;;;;;;;;;;41.84;20.62;98987.66;5049967;28;19912;-51
2022/09/05 09:58:37;;;;;;;;;;;;;;;41.95;20.83;98997.81;5049823;28;20311;-50
2022/09/05 10:01:23;;;;;;;;;;;;;;;41.49;20.30;98986.69;5049864;28;19913;-52
2022/09/05 10:03:52;;;;;;;;;;;;;;;40.53;21.18;98990.47;5033099;28;19970;-52
2022/09/05 10:06:26;;;;;;;;;;;;;;;40.40;21.80;98981.06;5049877;28;19913;-52
2022/09/05 10:09:24;;;;;;;;;;;;;;;40.48;21.28;98979.88;5049728;28;19912;-50
2022/09/05 10:12:08;;;;;;;;;;;;;;;40.33;21.29;98990.09;5054191;28;19912;-51
2022/09/05 10:14:44;;;;;;;;;;;;;;;40.36;21.69;98985.78;5092237;28;19919;-52
2022/09/05 10:17:29;;;;;;;;;;;;;;;40.84;21.58;98974.31;5092152;28;20274;-51
2022/09/05 10:20:00;;;;;;;;;;;;;;;41.55;20.73;98969.69;5092099;28;20015;-51
2022/09/05 10:22:38;;;;;;;;;;;;;;;41.75;20.72;98972.75;5090842;28;19912;-51
2022/09/05 10:25:03;;;;;;;;;;;;;;;41.99;20.14;98959.97;5092088;28;20201;-52
2022/09/05 10:27:47;;;;;;;;;;;;;;;42.06;19.80;98965.47;5092106;28;20401;-52
2022/09/05 10:30:22;;;;;;;;;;;;;;;41.59;19.95;98959.44;5092111;28;20354;-51
2022/09/05 10:33:09;;;;;;;;;;;;;;;41.20;20.74;98960.44;5092483;28;20283;-51
2022/09/05 10:35:42;;;;;;;;;;;;;;;41.51;20.67;98948.47;5096077;28;19919;-50
2022/09/05 10:38:11;;;;;;;;;;;;;;;41.50;20.54;98949.66;5094988;28;19926;-52
2022/09/05 10:40:42;;;;;;;;;;;;;;;41.43;19.46;98951.66;5095967;28;19916;-50
2022/09/05 10:43:28;;;;;;;;;;;;;;;40.79;19.74;98958.19;5095979;28;19912;-51
2022/09/05 10:45:59;;;;;;;;;;;;;;;40.32;19.55;98964.53;5095870;28;20010;-52
2022/09/05 10:48:45;;;;;;;;;;;;;;;39.87;20.65;98947.66;5095848;28;19950;-51
2022/09/05 10:51:11;;;;;;;;;;;;;;;40.35;21.01;98949.25;5095338;28;19935;-51
2022/09/05 10:53:42;;;;;;;;;;;;;;;40.68;20.16;98931.47;5095746;28;19916;-51
2022/09/05 10:56:11;;;;;;;;;;;;;;;40.05;20.61;98933.13;5095699;28;19918;-51
2022/09/05 10:58:58;;;;;;;;;;;;;;;39.53;20.82;98934.22;5095828;28;19916;-49
2022/09/05 11:01:27;;;;;;;;;;;;;;;39.48;22.02;98933.81;5095576;28;19916;-49
2022/09/05 11:04:14;;;;;;;;;;;;;;;39.83;20.98;98930.34;5096052;28;19916;-51
2022/09/05 11:06:59;;;;;;;;;;;;;;;39.54;21.29;98924.81;5094215;28;20386;-52
2022/09/05 11:09:31;;;;;;;;;;;;;;;39.61;21.17;98910.28;5095485;28;19912;-51
2022/09/05 11:12:08;;;;;;;;;;;;;;;39.19;21.93;98919.19;5095448;28;19965;-51
2022/09/05 11:14:37;;;;;;;;;;;;;;;38.76;21.60;98917.81;5095438;28;19912;-52
2022/09/05 11:17:15;;;;;;;;;;;;;;;39.10;21.76;98923.09;5095301;28;19957;-51
2022/09/05 11:19:48;;;;;;;;;;;;;;;39.68;21.62;98913.06;5095337;28;19923;-52
2022/09/05 11:22:15;;;;;;;;;;;;;;;40.33;21.54;98911.13;5093958;28;19912;-52
2022/09/05 11:24:50;;;;;;;;;;;;;;;40.83;20.79;98901.97;5095169;28;20019;-51
2022/09/05 11:27:26;;;;;;;;;;;;;;;41.03;20.20;98898.72;5095142;28;19912;-50
2022/09/05 11:29:54;;;;;;;;;;;;;;;40.37;20.36;98885.56;5095066;28;19918;-50
2022/09/05 11:32:32;;;;;;;;;;;;;;;39.36;21.36;98899.22;5093703;28;20390;-51
2022/09/05 11:35:09;;;;;;;;;;;;;;;38.99;22.25;98903.03;5095061;28;19922;-51
2022/09/05 11:38:04;;;;;;;;;;;;;;;38.54;22.07;98899.69;5094891;28;19920;-52
2022/09/05 11:40:30;;;;;;;;;;;;;;;38.03;23.36;98887.53;5085620;28;19912;-49
2022/09/05 11:43:11;;;;;;;;;;;;;;;38.04;23.36;98902.03;5095074;28;20293;-51
2022/09/05 11:45:37;;;;;;;;;;;;;;;38.18;23.36;98896.69;5094688;28;20289;-51
2022/09/05 11:48:20;;;;;;;;;;;;;;;38.47;22.56;98892.16;5095010;28;19912;-52
2022/09/05 11:50:59;;;;;;;;;;;;;;;38.60;23.10;98886.38;5094657;28;19911;-52
2022/09/05 11:53:34;;;;;;;;;;;;;;;38.47;23.30;98891.38;5094642;28;19912;-51
2022/09/05 11:56:06;;;;;;;;;;;;;;;38.29;23.09;98888.53;5093239;28;19919;-52
2022/09/05 11:58:37;;;;;;;;;;;;;;;37.61;23.81;98879.72;5094450;28;19940;-52
2022/09/05 12:01:19;;;;;;;;;;;;;;;37.37;24.59;98881.84;5094474;28;19912;-51
2022/09/05 12:03:51;;;;;;;;;;;;;;;37.48;23.82;98879.97;5094413;28;19912;-47
2022/09/05 12:06:20;;;;;;;;;;;;;;;37.01;24.38;98877.88;5094572;28;19923;-50
2022/09/05 12:09:08;;;;;;;;;;;;;;;36.75;24.53;98899.47;5094557;28;19912;-50
2022/09/05 12:11:40;;;;;;;;;;;;;;;37.09;24.62;98880.34;5092991;28;19916;-49
2022/09/05 12:14:27;;;;;;;;;;;;;;;37.47;24.54;98885.81;5094279;28;19989;-49
2022/09/05 12:17:01;;;;;;;;;;;;;;;37.81;24.58;98864.66;5094185;28;19916;-49
2022/09/05 12:19:50;;;;;;;;;;;;;;;38.15;23.94;98868.09;5094070;28;19980;-49
2022/09/05 12:22:42;;;;;;;;;;;;;;;38.30;23.51;98863.47;5094061;28;19916;-50
2022/09/05 12:25:15;;;;;;;;;;;;;;;38.39;23.33;98860.38;5091690;28;20317;-48
2022/09/05 12:27:46;;;;;;;;;;;;;;;38.42;23.64;98862.38;5093964;28;19912;-49
2022/09/05 12:30:14;;;;;;;;;;;;;;;38.31;22.64;98880.69;5093936;28;20046;-50
2022/09/05 12:32:49;;;;;;;;;;;;;;;37.64;23.73;98844.16;5092262;28;20313;-50
2022/09/05 12:35:30;;;;;;;;;;;;;;;37.09;24.66;98863.13;5092526;28;19916;-50
2022/09/05 12:38:14;;;;;;;;;;;;;;;36.76;24.42;98846.34;5093720;28;19912;-50
2022/09/05 12:40:45;;;;;;;;;;;;;;;36.66;24.79;98863.38;5092308;28;20023;-50
2022/09/05 12:43:11;;;;;;;;;;;;;;;36.40;25.11;98853.25;5092363;28;19919;-49
2022/09/05 12:45:55;;;;;;;;;;;;;;;36.21;26.49;98837.75;5092230;28;20317;-49
2022/09/05 12:48:26;;;;;;;;;;;;;;;36.11;25.92;98844.63;5093585;28;19911;-50
2022/09/05 12:50:55;;;;;;;;;;;;;;;36.36;26.04;98847.75;5093513;28;20373;-50
2022/09/05 12:53:21;;;;;;;;;;;;;;;36.32;25.57;98835.16;5093415;28;19912;-48
2022/09/05 12:55:56;;;;;;;;;;;;;;;36.07;26.26;98843.00;5092835;28;19922;-48
2022/09/05 12:58:22;;;;;;;;;;;;;;;35.67;26.42;98830.66;5091993;28;19912;-48
2022/09/05 13:00:48;;;;;;;;;;;;;;;35.16;28.20;98851.56;5093257;28;19912;-49
2022/09/05 13:03:20;;;;;;;;;;;;;;;34.94;28.07;98812.16;5093264;28;20286;-50
2022/09/05 13:05:51;;;;;;;;;;;;;;;34.83;28.51;98838.41;5091855;28;20294;-48
2022/09/05 13:08:20;;;;;;;;;;;;;;;35.00;28.47;98823.56;5093205;28;19916;-50
2022/09/05 13:10:53;;;;;;;;;;;;;;;34.78;28.70;98836.78;5093091;28;19919;-48
2022/09/05 13:13:25;;;;;;;;;;;;;;;34.22;28.83;98832.44;5093153;28;20005;-48
2022/09/05 13:15:52;;;;;;;;;;;;;;;33.77;29.42;98809.19;5092961;28;19919;-48
2022/09/05 13:18:23;;;;;;;;;;;;;;;33.70;30.57;98819.91;5092904;28;20010;-49
2022/09/05 13:20:55;;;;;;;;;;;;;;;33.61;30.68;98813.84;5092947;28;19918;-49
2022/09/05 13:23:26;;;;;;;;;;;;;;;33.58;30.13;98787.31;5092907;28;19966;-48
2022/09/05 13:26:00;;;;;;;;;;;;;;;33.31;30.44;98794.41;5092832;28;19919;-48
2022/09/05 13:28:47;;;;;;;;;;;;;;;32.96;30.93;98803.16;5092827;28;19919;-48
2022/09/05 13:31:14;;;;;;;;;;;;;;;32.76;32.32;98792.16;5092748;28;20401;-48